Time;durP1;ratioP1;P1;durP2;ratioP2;P2;SDS_P1;SDS_P2;PMS_P1;PMS_P2;Temp;Humidity;BMP_temperature;BMP_pressure;BME280_temperature;BME280_humidity;BME280_pressure;Samples;Min_cycle;Max_cycle;Signal;HPM_P1;HPM_P2
2024/04/14 00:01:20;;;;;;;12.02;5.57;;;;;;;;;;5387789;26;20004;-54
2024/04/14 00:03:53;;;;;;;14.48;5.45;;;;;;;;;;5410406;26;20003;-57
2024/04/14 00:06:22;;;;;;;16.42;6.10;;;;;;;;;;5389615;26;20004;-54
2024/04/14 00:08:52;;;;;;;15.45;5.55;;;;;;;;;;5372880;26;20015;-54
2024/04/14 00:11:18;;;;;;;14.07;5.68;;;;;;;;;;5375157;26;20547;-54
2024/04/14 00:13:46;;;;;;;14.70;6.07;;;;;;;;;;5373113;26;20070;-50
2024/04/14 00:16:14;;;;;;;15.88;5.35;;;;;;;;;;5372404;26;20019;-49
2024/04/14 00:18:40;;;;;;;12.35;5.50;;;;;;;;;;5372453;26;20008;-54
2024/04/14 00:21:06;;;;;;;11.57;5.68;;;;;;;;;;5374895;26;20023;-53
2024/04/14 00:23:32;;;;;;;14.38;5.90;;;;;;;;;;5374874;26;20000;-56
2024/04/14 00:25:58;;;;;;;11.68;5.80;;;;;;;;;;5372470;26;20030;-54
2024/04/14 00:28:24;;;;;;;13.35;6.15;;;;;;;;;;5374738;26;20001;-52
2024/04/14 00:30:49;;;;;;;11.90;5.78;;;;;;;;;;5343303;26;20012;-52
2024/04/14 00:33:15;;;;;;;13.82;6.05;;;;;;;;;;5374942;26;20499;-50
2024/04/14 00:35:42;;;;;;;13.35;5.78;;;;;;;;;;5372586;26;20019;-52
2024/04/14 00:38:08;;;;;;;14.52;6.10;;;;;;;;;;5374970;26;20004;-52
2024/04/14 00:40:33;;;;;;;10.02;5.35;;;;;;;;;;5379325;26;20048;-52
2024/04/14 00:42:59;;;;;;;12.77;5.15;;;;;;;;;;5373371;26;20004;-51
2024/04/14 00:45:26;;;;;;;11.52;5.97;;;;;;;;;;5343589;26;20040;-49
2024/04/14 00:47:53;;;;;;;17.52;5.80;;;;;;;;;;5343673;26;20016;-52
2024/04/14 00:50:19;;;;;;;11.23;5.82;;;;;;;;;;5375251;26;20040;-55
2024/04/14 00:52:44;;;;;;;10.27;4.85;;;;;;;;;;5375054;26;20395;-53
2024/04/14 00:55:12;;;;;;;11.20;5.85;;;;;;;;;;5343818;26;20409;-52
2024/04/14 00:57:38;;;;;;;11.65;5.47;;;;;;;;;;5343636;26;20106;-56
2024/04/14 01:00:05;;;;;;;10.32;5.30;;;;;;;;;;5372436;26;20442;-54
2024/04/14 01:02:31;;;;;;;16.98;5.65;;;;;;;;;;5404893;26;20000;-56
2024/04/14 01:04:57;;;;;;;12.48;5.72;;;;;;;;;;5383575;26;20005;-50
2024/04/14 01:07:22;;;;;;;17.33;5.78;;;;;;;;;;5314685;26;20082;-52
2024/04/14 01:09:48;;;;;;;20.35;6.22;;;;;;;;;;5374603;26;20099;-53
2024/04/14 01:12:14;;;;;;;16.02;6.15;;;;;;;;;;5313924;26;20008;-52
2024/04/14 01:14:40;;;;;;;16.30;6.45;;;;;;;;;;5372938;26;19996;-56
2024/04/14 01:17:06;;;;;;;11.00;5.95;;;;;;;;;;5371507;26;20039;-50
2024/04/14 01:19:33;;;;;;;11.75;5.78;;;;;;;;;;5371554;26;20054;-53
2024/04/14 01:21:58;;;;;;;16.67;5.70;;;;;;;;;;5369641;26;20008;-53
2024/04/14 01:24:24;;;;;;;16.63;6.03;;;;;;;;;;5371623;26;20004;-50
2024/04/14 01:26:49;;;;;;;13.48;5.60;;;;;;;;;;5370171;26;20004;-54
2024/04/14 01:29:16;;;;;;;12.75;5.90;;;;;;;;;;5374374;26;20004;-51
2024/04/14 01:31:42;;;;;;;15.77;6.00;;;;;;;;;;5343471;26;20043;-51
2024/04/14 01:34:07;;;;;;;12.63;5.75;;;;;;;;;;5371973;26;20004;-52
2024/04/14 01:36:33;;;;;;;15.65;6.20;;;;;;;;;;5374002;26;20008;-50
2024/04/14 01:38:59;;;;;;;14.52;5.43;;;;;;;;;;5380278;26;20014;-53
2024/04/14 01:41:25;;;;;;;13.68;6.43;;;;;;;;;;5375527;26;20082;-56
2024/04/14 01:43:51;;;;;;;18.20;6.70;;;;;;;;;;5371945;26;20020;-53
2024/04/14 01:46:16;;;;;;;13.68;6.35;;;;;;;;;;5396299;26;20003;-54
2024/04/14 01:48:42;;;;;;;13.98;5.78;;;;;;;;;;5409822;26;20088;-55
2024/04/14 01:51:08;;;;;;;14.70;5.72;;;;;;;;;;5407544;26;20003;-53
2024/04/14 01:53:34;;;;;;;14.43;6.32;;;;;;;;;;5341882;26;20084;-54
2024/04/14 01:56:01;;;;;;;11.23;4.82;;;;;;;;;;5386703;26;20015;-55
2024/04/14 01:58:26;;;;;;;17.08;6.00;;;;;;;;;;5390887;26;20023;-50
2024/04/14 02:00:52;;;;;;;14.88;5.70;;;;;;;;;;5375750;26;20004;-50
2024/04/14 02:03:18;;;;;;;14.77;6.03;;;;;;;;;;5370787;26;20008;-55
2024/04/14 02:05:44;;;;;;;14.68;6.15;;;;;;;;;;5349355;26;20681;-58
2024/04/14 02:08:10;;;;;;;14.63;6.07;;;;;;;;;;5386842;26;19999;-53
2024/04/14 02:10:40;;;;;;;16.42;5.85;;;;;;;;;;5378282;26;20460;-51
2024/04/14 02:13:06;;;;;;;13.38;5.68;;;;;;;;;;5376585;26;20368;-55
2024/04/14 02:15:32;;;;;;;13.02;5.53;;;;;;;;;;5373189;26;20031;-50
2024/04/14 02:17:59;;;;;;;14.10;6.03;;;;;;;;;;5385055;26;20073;-55
2024/04/14 02:20:24;;;;;;;17.83;5.38;;;;;;;;;;5390129;26;20801;-53
2024/04/14 02:22:50;;;;;;;9.85;5.13;;;;;;;;;;5385994;26;20564;-52
2024/04/14 02:25:15;;;;;;;13.57;5.65;;;;;;;;;;5372378;26;20008;-49
2024/04/14 02:27:41;;;;;;;9.50;5.00;;;;;;;;;;5350644;26;20004;-57
2024/04/14 02:30:07;;;;;;;15.77;5.95;;;;;;;;;;5388307;26;20004;-50
2024/04/14 02:32:33;;;;;;;11.85;5.22;;;;;;;;;;5390012;26;20007;-52
2024/04/14 02:34:59;;;;;;;12.82;5.20;;;;;;;;;;5389227;26;20019;-54
2024/04/14 02:37:25;;;;;;;17.92;6.63;;;;;;;;;;5351199;26;20012;-57
2024/04/14 02:39:51;;;;;;;16.73;6.05;;;;;;;;;;5379238;26;20004;-52
2024/04/14 02:42:19;;;;;;;15.55;6.40;;;;;;;;;;5355976;26;20034;-54
2024/04/14 02:44:44;;;;;;;17.00;5.97;;;;;;;;;;5375472;26;20016;-53
2024/04/14 02:47:10;;;;;;;12.13;5.63;;;;;;;;;;5325712;26;20618;-55
2024/04/14 02:49:36;;;;;;;13.32;6.07;;;;;;;;;;5380585;26;20007;-55
2024/04/14 02:52:02;;;;;;;16.90;6.80;;;;;;;;;;5392688;26;20004;-51
2024/04/14 02:54:28;;;;;;;16.73;5.97;;;;;;;;;;5392593;26;20007;-53
2024/04/14 02:56:53;;;;;;;14.18;5.25;;;;;;;;;;5367556;26;20022;-52
2024/04/14 02:59:19;;;;;;;12.27;5.15;;;;;;;;;;5392215;26;20005;-53
2024/04/14 03:01:45;;;;;;;10.90;5.30;;;;;;;;;;5389495;26;20004;-54
2024/04/14 03:04:11;;;;;;;15.13;5.93;;;;;;;;;;5376399;26;20000;-51
2024/04/14 03:06:37;;;;;;;15.15;6.28;;;;;;;;;;5376393;26;20552;-54
2024/04/14 03:09:02;;;;;;;13.98;5.50;;;;;;;;;;5374354;26;20000;-53
2024/04/14 03:11:28;;;;;;;10.30;5.78;;;;;;;;;;5373893;26;20018;-54
2024/04/14 03:13:54;;;;;;;12.40;5.40;;;;;;;;;;5376403;26;20514;-53
2024/04/14 03:16:20;;;;;;;15.45;5.65;;;;;;;;;;5376015;26;20008;-54
2024/04/14 03:18:46;;;;;;;11.55;5.05;;;;;;;;;;5345415;26;20044;-55
2024/04/14 03:21:12;;;;;;;12.43;5.00;;;;;;;;;;5373383;26;20004;-53
2024/04/14 03:23:39;;;;;;;10.18;4.90;;;;;;;;;;5372870;26;20360;-51
2024/04/14 03:26:04;;;;;;;12.55;4.57;;;;;;;;;;5376113;26;20004;-54
2024/04/14 03:28:30;;;;;;;9.80;4.70;;;;;;;;;;5374188;26;20435;-52
2024/04/14 03:31:00;;;;;;;9.27;4.60;;;;;;;;;;5373744;26;20546;-53
2024/04/14 03:33:27;;;;;;;8.63;4.63;;;;;;;;;;5344157;26;20019;-52
2024/04/14 03:36:00;;;;;;;9.63;4.30;;;;;;;;;;5375711;26;20004;-55
2024/04/14 03:38:26;;;;;;;8.60;3.72;;;;;;;;;;5374003;26;20008;-57
2024/04/14 03:40:52;;;;;;;8.50;4.38;;;;;;;;;;5380506;26;20016;-51
2024/04/14 03:43:18;;;;;;;9.77;4.05;;;;;;;;;;5372941;26;20008;-54
2024/04/14 03:45:44;;;;;;;7.78;4.03;;;;;;;;;;5373223;26;20419;-53
2024/04/14 03:48:09;;;;;;;7.75;3.85;;;;;;;;;;5372980;26;20008;-53
2024/04/14 03:50:35;;;;;;;12.43;4.25;;;;;;;;;;5374953;26;20536;-52
2024/04/14 03:53:01;;;;;;;7.88;4.25;;;;;;;;;;5359161;26;20023;-55
2024/04/14 03:55:26;;;;;;;8.80;3.92;;;;;;;;;;5372896;26;20004;-52
2024/04/14 03:57:52;;;;;;;10.52;4.25;;;;;;;;;;5343840;26;20004;-54
2024/04/14 04:00:18;;;;;;;10.43;4.55;;;;;;;;;;5375546;26;20045;-54
2024/04/14 04:02:43;;;;;;;8.77;4.13;;;;;;;;;;5408757;26;20061;-53
2024/04/14 04:05:09;;;;;;;9.60;4.20;;;;;;;;;;5410711;26;20558;-57
2024/04/14 04:07:35;;;;;;;7.53;4.15;;;;;;;;;;5408589;26;20004;-53
2024/04/14 04:10:01;;;;;;;8.10;4.18;;;;;;;;;;5401003;26;20091;-55
2024/04/14 04:12:29;;;;;;;11.17;4.53;;;;;;;;;;5375031;26;20388;-56
2024/04/14 04:14:55;;;;;;;9.55;4.00;;;;;;;;;;5381535;26;20270;-49
2024/04/14 04:17:21;;;;;;;6.72;3.92;;;;;;;;;;5386257;26;20110;-53
2024/04/14 04:19:46;;;;;;;9.32;4.20;;;;;;;;;;5394039;26;20026;-52
2024/04/14 04:22:12;;;;;;;10.25;3.97;;;;;;;;;;5400595;26;20081;-53
2024/04/14 04:24:37;;;;;;;10.35;3.72;;;;;;;;;;5343488;26;20046;-54
2024/04/14 04:27:03;;;;;;;6.47;3.55;;;;;;;;;;5374303;26;20047;-54
2024/04/14 04:29:29;;;;;;;9.00;4.95;;;;;;;;;;5374228;26;20016;-54
2024/04/14 04:31:55;;;;;;;10.15;4.18;;;;;;;;;;5343878;26;20075;-56
2024/04/14 04:34:21;;;;;;;10.48;3.97;;;;;;;;;;5372785;26;20434;-52
2024/04/14 04:36:48;;;;;;;11.63;4.85;;;;;;;;;;5372828;26;20506;-54
2024/04/14 04:39:15;;;;;;;7.72;3.78;;;;;;;;;;5379718;26;20490;-51
2024/04/14 04:41:40;;;;;;;11.75;4.53;;;;;;;;;;5371817;26;20041;-53
2024/04/14 04:44:07;;;;;;;13.07;5.80;;;;;;;;;;5343032;26;20446;-54
2024/04/14 04:46:32;;;;;;;12.10;4.57;;;;;;;;;;5343430;26;20302;-55
2024/04/14 04:48:59;;;;;;;8.75;4.00;;;;;;;;;;5374402;26;20460;-54
2024/04/14 04:51:25;;;;;;;7.90;4.50;;;;;;;;;;5373162;26;20045;-54
2024/04/14 04:53:51;;;;;;;11.52;4.43;;;;;;;;;;5314417;26;20085;-52
2024/04/14 04:56:16;;;;;;;9.65;4.10;;;;;;;;;;5372360;26;20016;-55
2024/04/14 04:58:42;;;;;;;6.82;4.15;;;;;;;;;;5374118;26;20000;-55
2024/04/14 05:01:09;;;;;;;8.63;4.07;;;;;;;;;;5384254;26;20017;-55
2024/04/14 05:03:34;;;;;;;8.32;3.85;;;;;;;;;;5370508;26;20008;-54
2024/04/14 05:06:01;;;;;;;6.40;3.70;;;;;;;;;;5372863;26;20400;-54
2024/04/14 05:08:27;;;;;;;5.97;3.78;;;;;;;;;;5371980;26;20079;-52
2024/04/14 05:10:56;;;;;;;7.63;3.90;;;;;;;;;;5343181;26;20012;-56
2024/04/14 05:13:22;;;;;;;8.48;4.18;;;;;;;;;;5372771;26;20012;-53
2024/04/14 05:15:48;;;;;;;10.45;4.43;;;;;;;;;;5373443;26;20053;-55
2024/04/14 05:18:14;;;;;;;10.23;4.22;;;;;;;;;;5373453;26;20040;-52
2024/04/14 05:20:40;;;;;;;9.60;4.32;;;;;;;;;;5371898;26;20016;-56
2024/04/14 05:23:07;;;;;;;10.32;4.43;;;;;;;;;;5373809;26;20004;-55
2024/04/14 05:25:33;;;;;;;8.52;3.90;;;;;;;;;;5371748;26;20012;-53
2024/04/14 05:27:59;;;;;;;8.18;4.38;;;;;;;;;;5373483;26;20368;-51
2024/04/14 05:30:25;;;;;;;9.02;4.07;;;;;;;;;;5373294;26;20008;-53
2024/04/14 05:32:51;;;;;;;7.35;3.80;;;;;;;;;;5342808;26;20004;-53
2024/04/14 05:35:16;;;;;;;7.03;3.50;;;;;;;;;;5371783;26;20047;-53
2024/04/14 05:37:42;;;;;;;9.82;3.50;;;;;;;;;;5342446;26;20000;-54
2024/04/14 05:40:08;;;;;;;6.15;3.70;;;;;;;;;;5385190;26;20356;-54
2024/04/14 05:42:34;;;;;;;6.65;3.47;;;;;;;;;;5370309;26;20082;-53
2024/04/14 05:45:00;;;;;;;8.48;3.53;;;;;;;;;;5342766;26;20023;-55
2024/04/14 05:47:25;;;;;;;7.95;3.50;;;;;;;;;;5372906;26;20008;-55
2024/04/14 05:49:52;;;;;;;6.60;3.20;;;;;;;;;;5373068;26;20032;-55
2024/04/14 05:52:17;;;;;;;10.10;3.50;;;;;;;;;;5373075;26;20082;-52
2024/04/14 05:54:45;;;;;;;8.00;3.80;;;;;;;;;;5383861;26;20007;-53
2024/04/14 05:57:12;;;;;;;6.18;3.38;;;;;;;;;;5372662;26;20469;-54
2024/04/14 05:59:38;;;;;;;5.93;3.65;;;;;;;;;;5373090;26;20015;-55
2024/04/14 06:02:03;;;;;;;8.25;3.88;;;;;;;;;;5389268;26;20004;-50
2024/04/14 06:04:29;;;;;;;7.00;3.70;;;;;;;;;;5372379;26;20004;-51
2024/04/14 06:06:56;;;;;;;6.40;3.03;;;;;;;;;;5372889;26;20004;-50
2024/04/14 06:09:23;;;;;;;7.07;3.35;;;;;;;;;;5372718;26;20018;-49
2024/04/14 06:11:49;;;;;;;4.78;2.53;;;;;;;;;;5372855;26;20000;-52
2024/04/14 06:14:15;;;;;;;7.60;3.20;;;;;;;;;;5372946;26;20005;-51
2024/04/14 06:16:41;;;;;;;6.10;3.40;;;;;;;;;;5373958;26;20062;-54
2024/04/14 06:19:06;;;;;;;8.15;3.05;;;;;;;;;;5381250;26;20003;-53
2024/04/14 06:21:32;;;;;;;8.13;2.90;;;;;;;;;;5395999;26;20086;-50
2024/04/14 06:23:58;;;;;;;3.72;2.78;;;;;;;;;;5375970;26;20012;-55
2024/04/14 06:26:24;;;;;;;8.80;3.42;;;;;;;;;;5373991;26;20004;-55
2024/04/14 06:28:49;;;;;;;5.80;3.25;;;;;;;;;;5345188;26;20484;-52
2024/04/14 06:31:15;;;;;;;9.38;3.50;;;;;;;;;;5375460;26;20031;-48
2024/04/14 06:33:40;;;;;;;10.65;4.22;;;;;;;;;;5375974;26;20000;-53
2024/04/14 06:36:07;;;;;;;9.20;3.60;;;;;;;;;;5374349;26;20004;-51
2024/04/14 06:38:33;;;;;;;7.35;3.65;;;;;;;;;;5376010;26;20015;-53
2024/04/14 06:40:58;;;;;;;6.30;3.80;;;;;;;;;;5403004;26;20040;-51
2024/04/14 06:43:24;;;;;;;6.78;3.78;;;;;;;;;;5411270;26;20014;-51
2024/04/14 06:45:54;;;;;;;8.90;3.63;;;;;;;;;;5409677;26;20077;-50
2024/04/14 06:48:20;;;;;;;12.40;3.20;;;;;;;;;;5409185;26;20008;-54
2024/04/14 06:50:45;;;;;;;5.47;2.70;;;;;;;;;;5376172;26;20014;-55
2024/04/14 06:53:12;;;;;;;4.22;2.28;;;;;;;;;;5388481;26;20324;-52
2024/04/14 06:55:37;;;;;;;8.30;2.97;;;;;;;;;;5344796;26;20000;-53
2024/04/14 06:58:03;;;;;;;5.40;2.60;;;;;;;;;;5375537;26;20004;-51
2024/04/14 07:00:29;;;;;;;6.40;4.07;;;;;;;;;;5376153;26;20462;-53
2024/04/14 07:02:54;;;;;;;10.43;4.10;;;;;;;;;;5411104;26;20380;-53
2024/04/14 07:05:20;;;;;;;8.85;4.20;;;;;;;;;;5408651;26;20003;-52
2024/04/14 07:07:46;;;;;;;8.77;4.32;;;;;;;;;;5410505;26;20099;-54
2024/04/14 07:10:12;;;;;;;4.95;3.35;;;;;;;;;;5410418;26;20016;-50
2024/04/14 07:12:38;;;;;;;11.32;4.22;;;;;;;;;;5375239;26;20070;-56
2024/04/14 07:15:04;;;;;;;9.57;3.55;;;;;;;;;;5375163;26;20023;-52
2024/04/14 07:17:30;;;;;;;12.23;4.53;;;;;;;;;;5373573;26;20483;-50
2024/04/14 07:19:56;;;;;;;12.45;3.88;;;;;;;;;;5373958;26;20478;-51
2024/04/14 07:22:23;;;;;;;7.55;2.90;;;;;;;;;;5344601;26;20020;-55
2024/04/14 07:24:49;;;;;;;4.93;2.90;;;;;;;;;;5387496;26;20000;-53
2024/04/14 07:27:15;;;;;;;7.65;3.17;;;;;;;;;;5384938;26;20005;-50
2024/04/14 07:29:41;;;;;;;2.78;1.67;;;;;;;;;;5374541;26;20019;-54
2024/04/14 07:32:07;;;;;;;7.80;1.80;;;;;;;;;;5344254;26;20380;-53
2024/04/14 07:34:32;;;;;;;3.60;1.70;;;;;;;;;;5347336;26;20630;-52
2024/04/14 07:36:59;;;;;;;4.45;1.52;;;;;;;;;;5388790;26;20005;-53
2024/04/14 07:39:25;;;;;;;3.47;1.48;;;;;;;;;;5387797;26;20018;-54
2024/04/14 07:41:50;;;;;;;3.33;1.50;;;;;;;;;;5391695;26;20004;-49
2024/04/14 07:44:16;;;;;;;1.75;1.30;;;;;;;;;;5390984;26;20019;-50
2024/04/14 07:46:42;;;;;;;3.08;1.70;;;;;;;;;;5379830;26;20077;-52
2024/04/14 07:49:07;;;;;;;4.28;1.92;;;;;;;;;;5372927;26;20019;-50
2024/04/14 07:51:33;;;;;;;4.75;1.90;;;;;;;;;;5374972;26;20014;-52
2024/04/14 07:53:59;;;;;;;5.25;1.67;;;;;;;;;;5374541;26;20015;-51
2024/04/14 07:56:25;;;;;;;3.15;1.80;;;;;;;;;;5373434;26;20029;-53
2024/04/14 07:58:50;;;;;;;5.32;1.58;;;;;;;;;;5373648;26;20055;-53
2024/04/14 08:01:16;;;;;;;1.92;1.35;;;;;;;;;;5387207;26;19999;-47
2024/04/14 08:03:42;;;;;;;3.58;1.33;;;;;;;;;;5395598;26;20075;-48
2024/04/14 08:06:08;;;;;;;3.13;1.30;;;;;;;;;;5391312;26;20020;-50
2024/04/14 08:08:33;;;;;;;4.47;1.38;;;;;;;;;;5390496;26;20003;-51
2024/04/14 08:10:59;;;;;;;5.55;1.60;;;;;;;;;;5366597;26;19999;-52
2024/04/14 08:13:25;;;;;;;2.90;1.20;;;;;;;;;;5381602;26;20057;-50
2024/04/14 08:15:50;;;;;;;2.95;1.30;;;;;;;;;;5373151;26;20028;-53
2024/04/14 08:18:18;;;;;;;4.45;1.40;;;;;;;;;;5372659;26;20000;-50
2024/04/14 08:20:45;;;;;;;3.85;1.33;;;;;;;;;;5374870;26;20015;-54
2024/04/14 08:23:10;;;;;;;4.97;1.80;;;;;;;;;;5373927;26;20008;-49
2024/04/14 08:25:41;;;;;;;3.40;1.52;;;;;;;;;;5343618;26;20004;-49
2024/04/14 08:28:07;;;;;;;2.13;1.40;;;;;;;;;;5343003;26;20019;-53
2024/04/14 08:30:32;;;;;;;3.22;1.70;;;;;;;;;;5395408;26;20007;-51
2024/04/14 08:32:58;;;;;;;4.18;1.40;;;;;;;;;;5386090;26;20040;-49
2024/04/14 08:35:24;;;;;;;6.10;1.45;;;;;;;;;;5398323;26;20042;-48
2024/04/14 08:37:50;;;;;;;2.38;1.40;;;;;;;;;;5389369;26;20431;-52
2024/04/14 08:40:16;;;;;;;4.55;1.65;;;;;;;;;;5390630;26;20408;-48
2024/04/14 08:42:43;;;;;;;2.40;1.40;;;;;;;;;;5388036;26;20004;-53
2024/04/14 08:45:10;;;;;;;2.80;1.05;;;;;;;;;;5386041;26;20813;-51
2024/04/14 08:47:37;;;;;;;3.17;1.17;;;;;;;;;;5361829;26;20010;-52
2024/04/14 08:50:03;;;;;;;4.70;1.15;;;;;;;;;;5391554;26;20011;-52
2024/04/14 08:52:29;;;;;;;2.05;1.10;;;;;;;;;;5386927;26;20008;-52
2024/04/14 08:54:55;;;;;;;5.85;1.20;;;;;;;;;;5392427;26;20003;-57
2024/04/14 08:57:20;;;;;;;2.90;1.15;;;;;;;;;;5359346;26;20011;-55
2024/04/14 08:59:49;;;;;;;1.67;1.00;;;;;;;;;;5342915;26;20480;-53
2024/04/14 09:02:16;;;;;;;1.63;1.23;;;;;;;;;;5342924;26;20015;-54
2024/04/14 09:04:43;;;;;;;2.58;1.00;;;;;;;;;;5371518;26;20012;-55
2024/04/14 09:07:09;;;;;;;2.45;1.00;;;;;;;;;;5342825;26;20019;-52
2024/04/14 09:09:35;;;;;;;3.22;1.10;;;;;;;;;;5357845;26;20008;-54
2024/04/14 09:12:01;;;;;;;2.47;1.08;;;;;;;;;;5343015;26;20004;-50
2024/04/14 09:14:28;;;;;;;3.90;1.20;;;;;;;;;;5374062;26;20004;-56
2024/04/14 09:16:53;;;;;;;2.63;1.10;;;;;;;;;;5373936;26;20019;-50
2024/04/14 09:19:19;;;;;;;2.30;1.10;;;;;;;;;;5372522;26;20000;-55
2024/04/14 09:21:45;;;;;;;2.70;1.10;;;;;;;;;;5374170;26;20004;-55
2024/04/14 09:24:11;;;;;;;4.97;1.02;;;;;;;;;;5343151;26;20008;-56
2024/04/14 09:26:37;;;;;;;2.15;0.90;;;;;;;;;;5382298;26;20554;-54
2024/04/14 09:29:09;;;;;;;2.65;1.20;;;;;;;;;;5400916;26;20416;-57
2024/04/14 09:31:35;;;;;;;2.53;0.90;;;;;;;;;;5371952;26;20020;-51
2024/04/14 09:34:04;;;;;;;1.73;1.10;;;;;;;;;;5341688;26;20008;-53
2024/04/14 09:36:30;;;;;;;2.40;1.00;;;;;;;;;;5371531;26;20012;-54
2024/04/14 09:38:56;;;;;;;1.85;0.80;;;;;;;;;;5371820;26;20077;-55
2024/04/14 09:41:22;;;;;;;3.50;0.93;;;;;;;;;;5342180;26;20021;-55
2024/04/14 09:43:52;;;;;;;1.50;0.90;;;;;;;;;;5342101;26;20352;-53
2024/04/14 09:46:17;;;;;;;;;;;;;;;;;;5374522;26;20485;-53
2024/04/14 09:48:44;;;;;;;2.75;0.90;;;;;;;;;;5342729;26;19925;-55
2024/04/14 09:51:09;;;;;;;4.65;0.90;;;;;;;;;;5377665;26;20008;-53
2024/04/14 09:53:35;;;;;;;3.05;1.00;;;;;;;;;;5371438;26;20400;-55
2024/04/14 09:56:05;;;;;;;1.30;0.90;;;;;;;;;;5373299;26;20008;-56
2024/04/14 09:58:30;;;;;;;;;;;;;;;;;;5371535;26;20074;-52
2024/04/14 10:00:57;;;;;;;2.35;1.08;;;;;;;;;;5380152;26;19941;-54
2024/04/14 10:03:25;;;;;;;3.72;0.85;;;;;;;;;;5408522;26;20019;-52
2024/04/14 10:05:50;;;;;;;3.92;1.70;;;;;;;;;;5390832;26;20081;-53
2024/04/14 10:08:17;;;;;;;3.03;1.40;;;;;;;;;;5371836;26;20024;-53
2024/04/14 10:10:43;;;;;;;1.70;1.10;;;;;;;;;;5394886;26;20559;-52
2024/04/14 10:13:09;;;;;;;2.50;1.15;;;;;;;;;;5344946;26;20000;-51
2024/04/14 10:15:36;;;;;;;1.02;0.80;;;;;;;;;;5369189;26;20368;-53
2024/04/14 10:18:07;;;;;;;4.28;1.33;;;;;;;;;;5406766;26;20022;-52
2024/04/14 10:20:40;;;;;;;2.50;1.30;;;;;;;;;;5407708;26;20023;-52
2024/04/14 10:23:06;;;;;;;2.15;1.30;;;;;;;;;;5407582;26;20000;-50
2024/04/14 10:25:32;;;;;;;3.03;1.02;;;;;;;;;;5347532;26;20007;-51
2024/04/14 10:27:57;;;;;;;3.72;1.23;;;;;;;;;;5400225;26;20023;-52
2024/04/14 10:30:24;;;;;;;2.00;1.27;;;;;;;;;;5386058;26;20073;-53
2024/04/14 10:33:02;;;;;;;3.83;1.27;;;;;;;;;;5407829;26;20004;-54
2024/04/14 10:35:28;;;;;;;5.00;1.10;;;;;;;;;;5407057;26;20028;-52
2024/04/14 10:37:54;;;;;;;3.97;1.40;;;;;;;;;;5378527;26;20242;-53
2024/04/14 10:40:21;;;;;;;6.68;1.20;;;;;;;;;;5377621;26;20023;-53
2024/04/14 10:42:47;;;;;;;4.65;1.48;;;;;;;;;;5341334;26;20012;-54
2024/04/14 10:45:12;;;;;;;2.25;1.10;;;;;;;;;;5372206;26;20019;-54
2024/04/14 10:47:40;;;;;;;3.22;1.30;;;;;;;;;;5372424;26;20001;-54
2024/04/14 10:50:06;;;;;;;4.40;1.60;;;;;;;;;;5371884;26;20563;-50
2024/04/14 10:52:32;;;;;;;2.00;1.23;;;;;;;;;;5369752;26;20009;-51
2024/04/14 10:54:57;;;;;;;2.35;1.50;;;;;;;;;;5371766;26;20033;-51
2024/04/14 10:57:23;;;;;;;3.22;1.35;;;;;;;;;;5341269;26;20013;-52
2024/04/14 10:59:49;;;;;;;5.13;1.63;;;;;;;;;;5372585;26;20665;-53
2024/04/14 11:02:16;;;;;;;2.95;1.38;;;;;;;;;;5371756;26;20061;-51
2024/04/14 11:04:42;;;;;;;2.70;1.40;;;;;;;;;;5409686;26;20004;-56
2024/04/14 11:07:10;;;;;;;3.50;1.10;;;;;;;;;;5377094;26;20481;-55
2024/04/14 11:09:36;;;;;;;4.22;1.95;;;;;;;;;;5375125;26;20074;-52
2024/04/14 11:12:03;;;;;;;4.10;1.33;;;;;;;;;;5375144;26;20555;-53
2024/04/14 11:14:29;;;;;;;1.88;1.10;;;;;;;;;;5375371;26;20353;-53
2024/04/14 11:16:55;;;;;;;2.17;1.48;;;;;;;;;;5375212;26;20015;-55
2024/04/14 11:19:21;;;;;;;2.20;1.38;;;;;;;;;;5375214;26;20376;-53
2024/04/14 11:21:47;;;;;;;2.53;1.10;;;;;;;;;;5373188;26;20094;-54
2024/04/14 11:24:13;;;;;;;2.03;1.20;;;;;;;;;;5344598;26;20012;-51
2024/04/14 11:26:42;;;;;;;2.38;1.00;;;;;;;;;;5373946;26;20365;-51
2024/04/14 11:29:08;;;;;;;3.28;1.02;;;;;;;;;;5344907;26;20015;-50
2024/04/14 11:31:37;;;;;;;1.80;0.88;;;;;;;;;;5375310;26;20032;-55
2024/04/14 11:34:03;;;;;;;2.20;1.25;;;;;;;;;;5374897;26;20876;-54
2024/04/14 11:36:32;;;;;;;2.20;1.10;;;;;;;;;;5373529;26;20022;-53
2024/04/14 11:39:00;;;;;;;1.40;1.10;;;;;;;;;;5377117;26;20410;-52
2024/04/14 11:41:25;;;;;;;2.35;1.27;;;;;;;;;;5375725;26;20019;-51
2024/04/14 11:43:51;;;;;;;5.03;1.60;;;;;;;;;;5375644;26;20012;-54
2024/04/14 11:46:17;;;;;;;2.50;0.90;;;;;;;;;;5373267;26;20050;-51
2024/04/14 11:48:44;;;;;;;1.55;1.20;;;;;;;;;;5373250;26;20907;-54
2024/04/14 11:51:09;;;;;;;1.35;1.02;;;;;;;;;;5405817;26;20081;-52
2024/04/14 11:53:36;;;;;;;1.30;0.63;;;;;;;;;;5378642;26;20022;-50
2024/04/14 11:56:01;;;;;;;1.40;0.70;;;;;;;;;;5408493;26;20004;-52
2024/04/14 11:58:28;;;;;;;1.58;0.90;;;;;;;;;;5378675;26;20007;-56
2024/04/14 12:00:53;;;;;;;2.53;0.90;;;;;;;;;;5384125;26;20019;-50
2024/04/14 12:03:19;;;;;;;3.75;0.98;;;;;;;;;;5373413;26;20089;-56
2024/04/14 12:05:45;;;;;;;1.02;0.70;;;;;;;;;;5375285;26;20577;-53
2024/04/14 12:08:11;;;;;;;1.48;0.90;;;;;;;;;;5376993;26;20441;-55
2024/04/14 12:10:37;;;;;;;1.60;0.80;;;;;;;;;;5382799;26;20026;-48
2024/04/14 12:13:05;;;;;;;3.35;1.33;;;;;;;;;;5371594;26;20015;-52
2024/04/14 12:15:31;;;;;;;2.25;1.60;;;;;;;;;;5374240;26;20001;-54
2024/04/14 12:17:57;;;;;;;2.85;1.52;;;;;;;;;;5315336;26;20005;-49
2024/04/14 12:20:23;;;;;;;3.70;1.42;;;;;;;;;;5373071;26;20004;-51
2024/04/14 12:22:50;;;;;;;3.97;1.60;;;;;;;;;;5375169;26;20015;-52
2024/04/14 12:25:17;;;;;;;3.15;1.58;;;;;;;;;;5358432;26;20016;-50
2024/04/14 12:27:44;;;;;;;2.80;1.73;;;;;;;;;;5393060;26;20543;-56
2024/04/14 12:30:10;;;;;;;3.25;1.50;;;;;;;;;;5372619;26;20001;-50
2024/04/14 12:32:36;;;;;;;2.20;1.60;;;;;;;;;;5389951;26;20019;-56
2024/04/14 12:35:01;;;;;;;3.45;1.48;;;;;;;;;;5367585;26;20353;-56
2024/04/14 12:37:29;;;;;;;3.90;1.58;;;;;;;;;;5344486;26;20008;-54
2024/04/14 12:39:56;;;;;;;4.05;2.00;;;;;;;;;;5377576;26;20008;-54
2024/04/14 12:42:22;;;;;;;2.67;1.88;;;;;;;;;;5375072;26;20008;-52
2024/04/14 12:44:48;;;;;;;3.50;1.98;;;;;;;;;;5333287;26;20061;-51
2024/04/14 12:47:13;;;;;;;3.83;1.88;;;;;;;;;;5389687;26;20024;-50
2024/04/14 12:49:39;;;;;;;5.07;1.77;;;;;;;;;;5383651;26;20011;-56
2024/04/14 12:52:05;;;;;;;5.15;2.33;;;;;;;;;;5390760;26;20167;-58
2024/04/14 12:54:30;;;;;;;6.40;2.15;;;;;;;;;;5386005;26;20511;-54
2024/04/14 12:56:56;;;;;;;5.38;2.20;;;;;;;;;;5390798;26;20030;-55
2024/04/14 12:59:22;;;;;;;3.78;1.73;;;;;;;;;;5406310;26;20007;-55
2024/04/14 13:01:48;;;;;;;4.30;1.67;;;;;;;;;;5391410;26;20016;-54
2024/04/14 13:04:14;;;;;;;7.55;1.70;;;;;;;;;;5372681;26;20098;-55
2024/04/14 13:06:39;;;;;;;13.23;1.50;;;;;;;;;;5372115;26;20020;-54
2024/04/14 13:09:05;;;;;;;5.00;1.58;;;;;;;;;;5373481;26;20040;-55
2024/04/14 13:11:35;;;;;;;11.23;5.13;;;;;;;;;;5372843;26;20004;-54
2024/04/14 13:14:01;;;;;;;7.68;1.60;;;;;;;;;;5373579;26;21021;-51
2024/04/14 13:16:27;;;;;;;3.58;1.48;;;;;;;;;;5374151;26;20008;-56
2024/04/14 13:18:54;;;;;;;4.13;1.63;;;;;;;;;;5388062;26;20000;-55
2024/04/14 13:21:20;;;;;;;3.83;1.25;;;;;;;;;;5386105;26;20008;-54
2024/04/14 13:23:47;;;;;;;3.38;1.60;;;;;;;;;;5372647;26;20012;-56
2024/04/14 13:26:14;;;;;;;4.57;1.65;;;;;;;;;;5342179;26;20008;-54
2024/04/14 13:28:39;;;;;;;2.22;1.10;;;;;;;;;;5373373;26;20004;-50
2024/04/14 13:31:05;;;;;;;6.63;1.33;;;;;;;;;;5371696;26;20019;-56
2024/04/14 13:33:30;;;;;;;2.35;1.60;;;;;;;;;;5373862;26;20101;-53
2024/04/14 13:35:56;;;;;;;1.95;1.05;;;;;;;;;;5375361;26;20375;-53
2024/04/14 13:38:22;;;;;;;1.63;1.10;;;;;;;;;;5387357;26;20033;-53
2024/04/14 13:40:47;;;;;;;4.35;1.27;;;;;;;;;;5386999;26;20000;-54
2024/04/14 13:43:13;;;;;;;2.13;1.25;;;;;;;;;;5390001;26;20008;-50
2024/04/14 13:45:39;;;;;;;3.88;1.55;;;;;;;;;;5389658;26;20120;-52
2024/04/14 13:48:06;;;;;;;5.30;0.95;;;;;;;;;;5388261;26;20008;-53
2024/04/14 13:50:31;;;;;;;1.63;1.13;;;;;;;;;;5385472;26;20003;-56
2024/04/14 13:52:57;;;;;;;5.43;1.95;;;;;;;;;;5390835;26;20008;-53
2024/04/14 13:55:23;;;;;;;4.88;1.30;;;;;;;;;;5381650;26;20004;-54
2024/04/14 13:57:49;;;;;;;2.67;1.20;;;;;;;;;;5374075;26;20019;-54
2024/04/14 14:00:16;;;;;;;1.90;1.13;;;;;;;;;;5356314;26;20007;-48
2024/04/14 14:02:42;;;;;;;6.90;1.63;;;;;;;;;;5389924;26;20004;-54
2024/04/14 14:05:08;;;;;;;2.42;1.30;;;;;;;;;;5381498;26;20018;-54
2024/04/14 14:07:33;;;;;;;2.78;1.15;;;;;;;;;;5393743;26;20004;-52
2024/04/14 14:09:59;;;;;;;4.05;1.52;;;;;;;;;;5387310;26;20007;-55
2024/04/14 14:12:25;;;;;;;5.70;1.33;;;;;;;;;;5373224;26;20510;-53
2024/04/14 14:14:50;;;;;;;1.23;0.80;;;;;;;;;;5381582;26;20106;-51
2024/04/14 14:17:16;;;;;;;2.97;1.27;;;;;;;;;;5389372;26;20008;-54
2024/04/14 14:19:45;;;;;;;2.92;1.08;;;;;;;;;;5388787;26;20016;-55
2024/04/14 14:22:12;;;;;;;1.83;1.25;;;;;;;;;;5388048;26;20004;-54
2024/04/14 14:24:38;;;;;;;2.60;1.42;;;;;;;;;;5388345;26;20004;-56
2024/04/14 14:27:04;;;;;;;4.55;1.50;;;;;;;;;;5393466;26;20076;-51
2024/04/14 14:29:30;;;;;;;2.22;1.27;;;;;;;;;;5404284;26;20008;-53
2024/04/14 14:31:56;;;;;;;4.30;1.30;;;;;;;;;;5436134;26;20003;-53
2024/04/14 14:37:06;;;;;;;2.65;1.60;;;;;;;;;;5389264;26;20096;-58